sensor_id;sensor_type;location;lat;lon;timestamp;pressure;altitude;pressure_sealevel;temperature;humidity
70323;BME280;57735;56.264;43.898;2023-05-01T00:02:00;99550.63;;;9.49;78.47
70323;BME280;57735;56.264;43.898;2023-05-01T00:04:32;99549.13;;;9.46;79.04
70323;BME280;57735;56.264;43.898;2023-05-01T00:07:06;99547.44;;;9.45;78.74
70323;BME280;57735;56.264;43.898;2023-05-01T00:09:37;99545.63;;;9.45;78.81
70323;BME280;57735;56.264;43.898;2023-05-01T00:12:07;99546.63;;;9.44;78.91
70323;BME280;57735;56.264;43.898;2023-05-01T00:14:42;99541.28;;;9.44;78.92
70323;BME280;57735;56.264;43.898;2023-05-01T00:17:13;99537.13;;;9.42;79.15
70323;BME280;57735;56.264;43.898;2023-05-01T00:19:43;99537.31;;;9.40;79.23
70323;BME280;57735;56.264;43.898;2023-05-01T00:22:14;99535.63;;;9.39;79.52
70323;BME280;57735;56.264;43.898;2023-05-01T00:24:45;99536.31;;;9.41;79.63
70323;BME280;57735;56.264;43.898;2023-05-01T00:27:18;99552.25;;;9.41;79.64
70323;BME280;57735;56.264;43.898;2023-05-01T00:29:51;99546.94;;;9.41;79.79
70323;BME280;57735;56.264;43.898;2023-05-01T00:32:22;99539.97;;;9.40;80.32
70323;BME280;57735;56.264;43.898;2023-05-01T00:34:53;99549.78;;;9.40;80.23
70323;BME280;57735;56.264;43.898;2023-05-01T00:37:24;99544.44;;;9.40;80.27
70323;BME280;57735;56.264;43.898;2023-05-01T00:39:54;99545.13;;;9.42;80.76
70323;BME280;57735;56.264;43.898;2023-05-01T00:42:25;99548.59;;;9.42;80.58
70323;BME280;57735;56.264;43.898;2023-05-01T00:44:56;99541.63;;;9.41;80.81
70323;BME280;57735;56.264;43.898;2023-05-01T00:47:29;99533.66;;;9.41;80.81
70323;BME280;57735;56.264;43.898;2023-05-01T00:50:00;99526.66;;;9.40;80.61
70323;BME280;57735;56.264;43.898;2023-05-01T00:52:33;99533.16;;;9.38;80.58
70323;BME280;57735;56.264;43.898;2023-05-01T00:55:05;99531.66;;;9.35;80.64
70323;BME280;57735;56.264;43.898;2023-05-01T00:57:36;99538.81;;;9.35;80.66
70323;BME280;57735;56.264;43.898;2023-05-01T01:00:10;99542.63;;;9.32;80.93
70323;BME280;57735;56.264;43.898;2023-05-01T01:02:41;99532.66;;;9.34;81.16
70323;BME280;57735;56.264;43.898;2023-05-01T01:05:12;99530.16;;;9.33;81.11
70323;BME280;57735;56.264;43.898;2023-05-01T01:07:47;99521.53;;;9.31;81.13
70323;BME280;57735;56.264;43.898;2023-05-01T01:13:11;99513.72;;;9.29;81.22
70323;BME280;57735;56.264;43.898;2023-05-01T01:15:56;99511.22;;;9.28;81.28
70323;BME280;57735;56.264;43.898;2023-05-01T01:18:32;99506.56;;;9.30;81.64
70323;BME280;57735;56.264;43.898;2023-05-01T01:24:20;99503.25;;;9.36;81.72
70323;BME280;57735;56.264;43.898;2023-05-01T01:35:33;99499.75;;;9.52;81.80
70323;BME280;57735;56.264;43.898;2023-05-01T01:38:18;99501.03;;;9.56;81.86
70323;BME280;57735;56.264;43.898;2023-05-01T01:40:58;99498.03;;;9.59;81.64
70323;BME280;57735;56.264;43.898;2023-05-01T01:43:37;99504.88;;;9.61;81.51
70323;BME280;57735;56.264;43.898;2023-05-01T01:46:10;99514.34;;;9.64;81.83
70323;BME280;57735;56.264;43.898;2023-05-01T01:48:45;99512.03;;;9.69;81.79
70323;BME280;57735;56.264;43.898;2023-05-01T01:51:20;99506.66;;;9.77;82.37
70323;BME280;57735;56.264;43.898;2023-05-01T01:53:53;99513.28;;;9.89;82.36
70323;BME280;57735;56.264;43.898;2023-05-01T01:56:26;99509.28;;;10.01;82.53
70323;BME280;57735;56.264;43.898;2023-05-01T01:59:00;99500.91;;;10.12;82.34
70323;BME280;57735;56.264;43.898;2023-05-01T02:01:33;99510.38;;;10.23;82.20
70323;BME280;57735;56.264;43.898;2023-05-01T02:04:04;99505.19;;;10.30;81.78
70323;BME280;57735;56.264;43.898;2023-05-01T02:06:37;99521.50;;;10.35;81.54
70323;BME280;57735;56.264;43.898;2023-05-01T02:09:12;99533.28;;;10.40;81.50
70323;BME280;57735;56.264;43.898;2023-05-01T02:11:45;99528.44;;;10.44;81.30
70323;BME280;57735;56.264;43.898;2023-05-01T02:14:17;99535.91;;;10.48;80.97
70323;BME280;57735;56.264;43.898;2023-05-01T02:16:49;99523.44;;;10.49;81.04
70323;BME280;57735;56.264;43.898;2023-05-01T02:19:21;99529.69;;;10.56;80.92
70323;BME280;57735;56.264;43.898;2023-05-01T02:21:55;99522.84;;;10.62;80.70
70323;BME280;57735;56.264;43.898;2023-05-01T02:24:27;99532.31;;;10.72;80.68
70323;BME280;57735;56.264;43.898;2023-05-01T02:27:06;99527.41;;;10.84;80.68
70323;BME280;57735;56.264;43.898;2023-05-01T02:29:38;99536.81;;;10.95;80.50
70323;BME280;57735;56.264;43.898;2023-05-01T02:32:09;99532.72;;;11.07;80.44
70323;BME280;57735;56.264;43.898;2023-05-01T02:34:40;99541.34;;;11.17;79.95
70323;BME280;57735;56.264;43.898;2023-05-01T02:37:11;99535.28;;;11.23;79.67
70323;BME280;57735;56.264;43.898;2023-05-01T02:39:42;99547.25;;;11.27;79.37
70323;BME280;57735;56.264;43.898;2023-05-01T02:42:16;99545.53;;;11.34;79.21
70323;BME280;57735;56.264;43.898;2023-05-01T02:45:04;99555.31;;;11.42;78.94
70323;BME280;57735;56.264;43.898;2023-05-01T02:47:38;99555.78;;;11.45;78.81
70323;BME280;57735;56.264;43.898;2023-05-01T02:50:12;99558.75;;;11.50;78.58
70323;BME280;57735;56.264;43.898;2023-05-01T02:52:45;99560.06;;;11.54;78.38
70323;BME280;57735;56.264;43.898;2023-05-01T02:55:16;99562.34;;;11.58;77.89
70323;BME280;57735;56.264;43.898;2023-05-01T02:57:50;99569.81;;;11.62;77.89
70323;BME280;57735;56.264;43.898;2023-05-01T03:00:21;99583.81;;;11.64;77.70
70323;BME280;57735;56.264;43.898;2023-05-01T03:02:52;99584.00;;;11.63;77.76
70323;BME280;57735;56.264;43.898;2023-05-01T03:05:24;99580.31;;;11.64;77.97
70323;BME280;57735;56.264;43.898;2023-05-01T03:07:54;99575.47;;;11.67;77.79
70323;BME280;57735;56.264;43.898;2023-05-01T03:10:25;99578.59;;;11.71;77.54
70323;BME280;57735;56.264;43.898;2023-05-01T03:13:13;99579.25;;;11.73;77.57
70323;BME280;57735;56.264;43.898;2023-05-01T03:15:44;99587.06;;;11.74;77.42
70323;BME280;57735;56.264;43.898;2023-05-01T03:18:15;99591.56;;;11.74;77.43
70323;BME280;57735;56.264;43.898;2023-05-01T03:20:53;99592.25;;;11.76;77.46
70323;BME280;57735;56.264;43.898;2023-05-01T03:23:24;99595.59;;;11.78;77.68
70323;BME280;57735;56.264;43.898;2023-05-01T03:25:55;99598.06;;;11.79;77.50
70323;BME280;57735;56.264;43.898;2023-05-01T03:28:26;99591.91;;;11.79;77.46
70323;BME280;57735;56.264;43.898;2023-05-01T03:30:57;99601.56;;;11.80;77.51
70323;BME280;57735;56.264;43.898;2023-05-01T03:33:30;99605.25;;;11.79;77.73
70323;BME280;57735;56.264;43.898;2023-05-01T03:36:02;99603.41;;;11.79;77.73
70323;BME280;57735;56.264;43.898;2023-05-01T03:38:40;99603.88;;;11.83;77.65
70323;BME280;57735;56.264;43.898;2023-05-01T03:41:11;99609.88;;;11.85;77.57
70323;BME280;57735;56.264;43.898;2023-05-01T03:43:43;99613.56;;;11.84;77.55
70323;BME280;57735;56.264;43.898;2023-05-01T03:46:13;99615.88;;;11.87;77.65
70323;BME280;57735;56.264;43.898;2023-05-01T03:48:44;99617.81;;;11.93;77.37
70323;BME280;57735;56.264;43.898;2023-05-01T03:51:15;99617.44;;;11.96;77.34
70323;BME280;57735;56.264;43.898;2023-05-01T03:53:46;99625.28;;;11.98;77.30
70323;BME280;57735;56.264;43.898;2023-05-01T03:56:17;99626.47;;;11.95;77.54
70323;BME280;57735;56.264;43.898;2023-05-01T03:58:51;99628.50;;;11.93;77.63
70323;BME280;57735;56.264;43.898;2023-05-01T04:01:21;99634.00;;;11.92;77.83
70323;BME280;57735;56.264;43.898;2023-05-01T04:03:52;99632.56;;;11.89;77.86
70323;BME280;57735;56.264;43.898;2023-05-01T04:06:23;99629.88;;;11.89;78.00
70323;BME280;57735;56.264;43.898;2023-05-01T04:08:54;99628.22;;;11.88;77.81
70323;BME280;57735;56.264;43.898;2023-05-01T04:11:25;99623.88;;;11.87;77.68
70323;BME280;57735;56.264;43.898;2023-05-01T04:13:58;99624.91;;;11.86;78.09
70323;BME280;57735;56.264;43.898;2023-05-01T04:16:30;99620.56;;;11.85;77.84
70323;BME280;57735;56.264;43.898;2023-05-01T04:19:01;99622.88;;;11.88;77.65
70323;BME280;57735;56.264;43.898;2023-05-01T04:21:31;99619.56;;;11.86;77.69
70323;BME280;57735;56.264;43.898;2023-05-01T04:24:02;99618.91;;;11.84;77.74
70323;BME280;57735;56.264;43.898;2023-05-01T04:26:33;99629.41;;;11.85;77.77
70323;BME280;57735;56.264;43.898;2023-05-01T04:29:04;99645.25;;;11.87;77.36
70323;BME280;57735;56.264;43.898;2023-05-01T04:31:34;99667.81;;;11.84;77.31
70323;BME280;57735;56.264;43.898;2023-05-01T04:34:05;99674.69;;;11.79;77.32
70323;BME280;57735;56.264;43.898;2023-05-01T04:36:36;99685.19;;;11.80;77.53
70323;BME280;57735;56.264;43.898;2023-05-01T04:39:07;99695.69;;;11.74;77.06
70323;BME280;57735;56.264;43.898;2023-05-01T04:41:37;99700.75;;;11.69;77.29
70323;BME280;57735;56.264;43.898;2023-05-01T04:44:08;99688.44;;;11.68;77.44
70323;BME280;57735;56.264;43.898;2023-05-01T04:46:39;99680.59;;;11.66;77.17
70323;BME280;57735;56.264;43.898;2023-05-01T04:49:10;99668.91;;;11.67;77.31
70323;BME280;57735;56.264;43.898;2023-05-01T04:51:41;99671.91;;;11.64;77.15
70323;BME280;57735;56.264;43.898;2023-05-01T04:54:14;99683.78;;;11.62;77.29
70323;BME280;57735;56.264;43.898;2023-05-01T04:56:44;99683.78;;;11.62;77.26
70323;BME280;57735;56.264;43.898;2023-05-01T04:59:15;99680.94;;;11.63;76.97
70323;BME280;57735;56.264;43.898;2023-05-01T05:01:46;99668.25;;;11.65;76.58
70323;BME280;57735;56.264;43.898;2023-05-01T05:04:17;99684.25;;;11.65;76.38
70323;BME280;57735;56.264;43.898;2023-05-01T05:06:48;99685.09;;;11.66;76.04
70323;BME280;57735;56.264;43.898;2023-05-01T05:09:19;99708.28;;;11.65;76.13
70323;BME280;57735;56.264;43.898;2023-05-01T05:11:50;99715.81;;;11.62;75.83
70323;BME280;57735;56.264;43.898;2023-05-01T05:14:20;99695.78;;;11.66;75.50
70323;BME280;57735;56.264;43.898;2023-05-01T05:16:51;99681.03;;;11.78;75.06
70323;BME280;57735;56.264;43.898;2023-05-01T05:19:22;99673.91;;;11.93;74.59
70323;BME280;57735;56.264;43.898;2023-05-01T05:21:57;99670.06;;;12.10;73.88
70323;BME280;57735;56.264;43.898;2023-05-01T05:24:28;99665.59;;;12.26;73.74
70323;BME280;57735;56.264;43.898;2023-05-01T05:26:59;99661.72;;;12.43;72.63
70323;BME280;57735;56.264;43.898;2023-05-01T05:29:30;99666.66;;;12.54;72.25
70323;BME280;57735;56.264;43.898;2023-05-01T05:32:00;99669.97;;;12.71;72.01
70323;BME280;57735;56.264;43.898;2023-05-01T05:34:31;99677.81;;;12.87;71.35
70323;BME280;57735;56.264;43.898;2023-05-01T05:37:02;99679.16;;;12.98;70.76
70323;BME280;57735;56.264;43.898;2023-05-01T05:39:33;99693.56;;;12.97;70.35
70323;BME280;57735;56.264;43.898;2023-05-01T05:42:04;99695.88;;;13.00;70.35
70323;BME280;57735;56.264;43.898;2023-05-01T05:44:35;99699.25;;;13.08;69.97
70323;BME280;57735;56.264;43.898;2023-05-01T05:47:11;99697.50;;;13.30;69.91
70323;BME280;57735;56.264;43.898;2023-05-01T05:49:44;99704.75;;;13.15;69.80
70323;BME280;57735;56.264;43.898;2023-05-01T05:52:15;99695.31;;;13.04;69.74
70323;BME280;57735;56.264;43.898;2023-05-01T05:54:46;99708.22;;;13.01;70.16
70323;BME280;57735;56.264;43.898;2023-05-01T05:57:20;99719.59;;;12.88;70.25
70323;BME280;57735;56.264;43.898;2023-05-01T05:59:51;99722.34;;;12.80;70.30
70323;BME280;57735;56.264;43.898;2023-05-01T06:02:22;99719.66;;;12.65;70.08
70323;BME280;57735;56.264;43.898;2023-05-01T06:04:52;99724.66;;;12.68;70.50
70323;BME280;57735;56.264;43.898;2023-05-01T06:07:25;99713.47;;;12.94;69.80
70323;BME280;57735;56.264;43.898;2023-05-01T06:09:57;99713.47;;;12.94;69.76
70323;BME280;57735;56.264;43.898;2023-05-01T06:12:37;99746.22;;;12.81;69.93
70323;BME280;57735;56.264;43.898;2023-05-01T06:15:08;99739.13;;;12.74;70.61
70323;BME280;57735;56.264;43.898;2023-05-01T06:17:42;99738.75;;;12.62;71.00
70323;BME280;57735;56.264;43.898;2023-05-01T06:20:13;99748.56;;;12.47;70.87
70323;BME280;57735;56.264;43.898;2023-05-01T06:22:44;99762.75;;;12.33;71.57
70323;BME280;57735;56.264;43.898;2023-05-01T06:25:16;99765.94;;;12.28;72.08
70323;BME280;57735;56.264;43.898;2023-05-01T06:27:46;99761.13;;;12.23;72.03
70323;BME280;57735;56.264;43.898;2023-05-01T06:30:17;99752.19;;;12.16;72.29
70323;BME280;57735;56.264;43.898;2023-05-01T06:32:51;99714.13;;;12.14;72.32
70323;BME280;57735;56.264;43.898;2023-05-01T06:35:22;99666.34;;;12.19;72.46
70323;BME280;57735;56.264;43.898;2023-05-01T06:37:53;99630.78;;;12.34;72.11
70323;BME280;57735;56.264;43.898;2023-05-01T06:40:25;99618.13;;;12.57;71.40
70323;BME280;57735;56.264;43.898;2023-05-01T06:42:56;99629.34;;;12.97;70.73
70323;BME280;57735;56.264;43.898;2023-05-01T06:45:27;99673.78;;;13.27;70.58
70323;BME280;57735;56.264;43.898;2023-05-01T06:48:01;99735.72;;;13.24;70.71
70323;BME280;57735;56.264;43.898;2023-05-01T06:50:32;99736.00;;;13.14;70.44
70323;BME280;57735;56.264;43.898;2023-05-01T06:53:02;99736.94;;;13.07;70.44
70323;BME280;57735;56.264;43.898;2023-05-01T06:55:36;99742.06;;;13.08;70.54
70323;BME280;57735;56.264;43.898;2023-05-01T06:58:07;99740.19;;;13.17;70.11
70323;BME280;57735;56.264;43.898;2023-05-01T07:00:38;99758.97;;;13.09;70.30
70323;BME280;57735;56.264;43.898;2023-05-01T07:03:11;99763.13;;;12.97;70.59
70323;BME280;57735;56.264;43.898;2023-05-01T07:05:42;99771.97;;;12.82;70.73
70323;BME280;57735;56.264;43.898;2023-05-01T07:08:13;99772.97;;;12.81;70.84
70323;BME280;57735;56.264;43.898;2023-05-01T07:10:46;99777.38;;;12.74;70.74
70323;BME280;57735;56.264;43.898;2023-05-01T07:13:18;99774.63;;;12.68;71.16
70323;BME280;57735;56.264;43.898;2023-05-01T07:15:52;99781.03;;;12.58;71.22
70323;BME280;57735;56.264;43.898;2023-05-01T07:18:24;99786.47;;;12.50;71.58
70323;BME280;57735;56.264;43.898;2023-05-01T07:20:57;99779.66;;;12.48;71.30
70323;BME280;57735;56.264;43.898;2023-05-01T07:23:31;99785.19;;;12.46;71.45
70323;BME280;57735;56.264;43.898;2023-05-01T07:26:04;99791.66;;;12.52;71.29
70323;BME280;57735;56.264;43.898;2023-05-01T07:28:37;99796.47;;;12.56;70.97
70323;BME280;57735;56.264;43.898;2023-05-01T07:31:08;99794.97;;;12.54;70.77
70323;BME280;57735;56.264;43.898;2023-05-01T07:33:39;99793.34;;;12.68;70.83
70323;BME280;57735;56.264;43.898;2023-05-01T07:36:11;99800.44;;;12.75;70.77
70323;BME280;57735;56.264;43.898;2023-05-01T07:38:42;99806.75;;;12.82;70.59
70323;BME280;57735;56.264;43.898;2023-05-01T07:41:13;99813.88;;;12.90;70.44
70323;BME280;57735;56.264;43.898;2023-05-01T07:43:43;99840.63;;;12.90;70.25
70323;BME280;57735;56.264;43.898;2023-05-01T07:46:16;99830.88;;;12.74;70.45
70323;BME280;57735;56.264;43.898;2023-05-01T07:48:47;99838.63;;;12.69;70.68
70323;BME280;57735;56.264;43.898;2023-05-01T07:51:18;99850.03;;;12.63;70.89
70323;BME280;57735;56.264;43.898;2023-05-01T07:53:48;99851.34;;;12.67;71.27
70323;BME280;57735;56.264;43.898;2023-05-01T07:56:22;99854.03;;;12.67;71.30
70323;BME280;57735;56.264;43.898;2023-05-01T07:58:53;99883.13;;;12.62;71.12
70323;BME280;57735;56.264;43.898;2023-05-01T08:01:24;99883.56;;;12.51;71.14
70323;BME280;57735;56.264;43.898;2023-05-01T08:03:55;99884.91;;;12.47;71.41
70323;BME280;57735;56.264;43.898;2023-05-01T08:06:29;99897.34;;;12.40;71.50
70323;BME280;57735;56.264;43.898;2023-05-01T08:09:01;99912.75;;;12.30;71.83
70323;BME280;57735;56.264;43.898;2023-05-01T08:11:31;99931.88;;;12.18;72.01
70323;BME280;57735;56.264;43.898;2023-05-01T08:14:02;99957.94;;;12.08;72.33
70323;BME280;57735;56.264;43.898;2023-05-01T08:16:34;99954.84;;;11.97;72.90
70323;BME280;57735;56.264;43.898;2023-05-01T08:19:05;99963.03;;;11.95;73.11
70323;BME280;57735;56.264;43.898;2023-05-01T08:21:36;99954.16;;;11.95;73.15
70323;BME280;57735;56.264;43.898;2023-05-01T08:24:08;99944.50;;;11.94;73.26
70323;BME280;57735;56.264;43.898;2023-05-01T08:26:39;99929.19;;;11.87;72.89
70323;BME280;57735;56.264;43.898;2023-05-01T08:29:09;99919.34;;;11.88;72.88
70323;BME280;57735;56.264;43.898;2023-05-01T08:31:40;99886.63;;;11.86;72.87
70323;BME280;57735;56.264;43.898;2023-05-01T08:34:14;99883.13;;;11.85;73.21
70323;BME280;57735;56.264;43.898;2023-05-01T08:36:46;99895.63;;;11.85;73.52
70323;BME280;57735;56.264;43.898;2023-05-01T08:39:17;99898.78;;;11.88;73.35
70323;BME280;57735;56.264;43.898;2023-05-01T08:41:48;99888.13;;;11.88;73.56
70323;BME280;57735;56.264;43.898;2023-05-01T08:44:19;99900.81;;;11.78;73.53
70323;BME280;57735;56.264;43.898;2023-05-01T08:47:03;99901.16;;;11.83;74.10
70323;BME280;57735;56.264;43.898;2023-05-01T08:49:38;99895.63;;;11.85;74.43
70323;BME280;57735;56.264;43.898;2023-05-01T08:52:12;99894.09;;;11.91;74.13
70323;BME280;57735;56.264;43.898;2023-05-01T08:54:44;99895.41;;;11.95;74.17
70323;BME280;57735;56.264;43.898;2023-05-01T08:57:17;99888.88;;;11.97;73.18
70323;BME280;57735;56.264;43.898;2023-05-01T08:59:49;99903.13;;;11.90;73.09
70323;BME280;57735;56.264;43.898;2023-05-01T09:02:22;99908.28;;;11.91;73.60
70323;BME280;57735;56.264;43.898;2023-05-01T09:04:53;99904.91;;;11.97;73.66
70323;BME280;57735;56.264;43.898;2023-05-01T09:07:24;99895.38;;;12.03;72.88
70323;BME280;57735;56.264;43.898;2023-05-01T09:09:55;99903.41;;;12.03;72.79
70323;BME280;57735;56.264;43.898;2023-05-01T09:12:26;99900.72;;;12.03;71.98
70323;BME280;57735;56.264;43.898;2023-05-01T09:14:58;99907.03;;;12.10;72.01
70323;BME280;57735;56.264;43.898;2023-05-01T09:17:30;99910.69;;;12.09;72.47
70323;BME280;57735;56.264;43.898;2023-05-01T09:20:10;99897.00;;;12.12;72.46
70323;BME280;57735;56.264;43.898;2023-05-01T09:22:41;99880.22;;;12.49;71.31
70323;BME280;57735;56.264;43.898;2023-05-01T09:25:12;99868.06;;;13.07;69.05
70323;BME280;57735;56.264;43.898;2023-05-01T09:27:43;99848.72;;;13.49;68.75
70323;BME280;57735;56.264;43.898;2023-05-01T09:30:31;99848.59;;;13.72;66.92
70323;BME280;57735;56.264;43.898;2023-05-01T09:33:06;99846.28;;;13.69;66.61
70323;BME280;57735;56.264;43.898;2023-05-01T09:35:52;99831.06;;;14.05;65.64
70323;BME280;57735;56.264;43.898;2023-05-01T09:38:25;99831.72;;;14.28;65.17
70323;BME280;57735;56.264;43.898;2023-05-01T09:41:03;99815.31;;;14.38;64.30
70323;BME280;57735;56.264;43.898;2023-05-01T09:43:34;99822.59;;;14.23;64.86
70323;BME280;57735;56.264;43.898;2023-05-01T09:46:07;99824.03;;;14.25;63.76
70323;BME280;57735;56.264;43.898;2023-05-01T09:48:57;99818.81;;;14.17;65.03
70323;BME280;57735;56.264;43.898;2023-05-01T09:51:33;99812.31;;;14.26;64.98
70323;BME280;57735;56.264;43.898;2023-05-01T09:54:04;99822.44;;;14.46;63.97
70323;BME280;57735;56.264;43.898;2023-05-01T09:56:48;99830.91;;;14.71;63.25
70323;BME280;57735;56.264;43.898;2023-05-01T09:59:19;99836.09;;;14.51;63.44
70323;BME280;57735;56.264;43.898;2023-05-01T10:01:50;99851.69;;;14.41;64.09
70323;BME280;57735;56.264;43.898;2023-05-01T10:04:34;99841.28;;;14.16;64.01
70323;BME280;57735;56.264;43.898;2023-05-01T10:07:12;99834.69;;;13.97;64.23
70323;BME280;57735;56.264;43.898;2023-05-01T10:09:43;99813.25;;;13.97;64.07
70323;BME280;57735;56.264;43.898;2023-05-01T10:12:25;99817.81;;;13.82;64.07
70323;BME280;57735;56.264;43.898;2023-05-01T10:14:58;99836.47;;;13.76;65.01
70323;BME280;57735;56.264;43.898;2023-05-01T10:17:30;99823.75;;;13.63;64.70
70323;BME280;57735;56.264;43.898;2023-05-01T10:20:04;99825.59;;;13.62;64.78
70323;BME280;57735;56.264;43.898;2023-05-01T10:22:39;99814.63;;;13.72;64.29
70323;BME280;57735;56.264;43.898;2023-05-01T10:25:12;99837.09;;;13.56;64.82
70323;BME280;57735;56.264;43.898;2023-05-01T10:27:46;99892.09;;;13.30;65.48
70323;BME280;57735;56.264;43.898;2023-05-01T10:30:18;99956.53;;;13.05;66.98
70323;BME280;57735;56.264;43.898;2023-05-01T10:32:53;99882.22;;;12.92;68.13
70323;BME280;57735;56.264;43.898;2023-05-01T10:35:36;99865.94;;;12.79;68.26
70323;BME280;57735;56.264;43.898;2023-05-01T10:38:11;99853.66;;;12.70;69.25
70323;BME280;57735;56.264;43.898;2023-05-01T10:40:53;99878.69;;;12.54;70.62
70323;BME280;57735;56.264;43.898;2023-05-01T10:43:29;99914.31;;;12.47;71.25
70323;BME280;57735;56.264;43.898;2023-05-01T10:53:42;100017.44;;;12.02;74.12
70323;BME280;57735;56.264;43.898;2023-05-01T10:58:58;99922.00;;;11.88;74.72
70323;BME280;57735;56.264;43.898;2023-05-01T11:01:40;99884.44;;;11.90;74.67
70323;BME280;57735;56.264;43.898;2023-05-01T11:12:13;99962.91;;;11.88;76.98
70323;BME280;57735;56.264;43.898;2023-05-01T11:17:47;99959.88;;;11.75;77.77
70323;BME280;57735;56.264;43.898;2023-05-01T11:22:56;99903.69;;;11.69;77.98
70323;BME280;57735;56.264;43.898;2023-05-01T11:25:28;99880.47;;;11.69;78.18
70323;BME280;57735;56.264;43.898;2023-05-01T11:28:02;99884.44;;;11.73;78.28
70323;BME280;57735;56.264;43.898;2023-05-01T11:30:39;99925.53;;;11.72;78.20
70323;BME280;57735;56.264;43.898;2023-05-01T11:33:10;99982.44;;;11.73;78.35
70323;BME280;57735;56.264;43.898;2023-05-01T11:35:40;99995.47;;;11.76;78.62
70323;BME280;57735;56.264;43.898;2023-05-01T11:38:17;100003.47;;;11.76;78.98
70323;BME280;57735;56.264;43.898;2023-05-01T11:40:56;99995.78;;;11.81;78.38
70323;BME280;57735;56.264;43.898;2023-05-01T11:43:27;99993.13;;;11.89;77.48
70323;BME280;57735;56.264;43.898;2023-05-01T11:45:58;99994.22;;;12.03;77.47
70323;BME280;57735;56.264;43.898;2023-05-01T11:48:33;99997.66;;;12.19;77.63
70323;BME280;57735;56.264;43.898;2023-05-01T11:51:11;100014.66;;;12.27;76.86
70323;BME280;57735;56.264;43.898;2023-05-01T11:53:42;100016.34;;;12.28;76.47
70323;BME280;57735;56.264;43.898;2023-05-01T11:56:20;100011.66;;;12.30;76.67
70323;BME280;57735;56.264;43.898;2023-05-01T11:58:52;100013.66;;;12.28;76.47
70323;BME280;57735;56.264;43.898;2023-05-01T12:01:37;100013.03;;;12.17;76.50
70323;BME280;57735;56.264;43.898;2023-05-01T12:04:09;100012.38;;;12.15;76.31
70323;BME280;57735;56.264;43.898;2023-05-01T12:06:42;100017.22;;;12.12;76.32
70323;BME280;57735;56.264;43.898;2023-05-01T12:09:14;100006.41;;;12.05;76.39
70323;BME280;57735;56.264;43.898;2023-05-01T12:11:48;99999.56;;;12.03;76.50
70323;BME280;57735;56.264;43.898;2023-05-01T12:14:21;100002.59;;;12.00;76.15
70323;BME280;57735;56.264;43.898;2023-05-01T12:16:53;100007.44;;;11.96;76.51
70323;BME280;57735;56.264;43.898;2023-05-01T12:19:24;100011.44;;;11.92;76.62
70323;BME280;57735;56.264;43.898;2023-05-01T12:22:06;100009.13;;;11.89;77.04
70323;BME280;57735;56.264;43.898;2023-05-01T12:24:37;100016.81;;;11.84;77.76
70323;BME280;57735;56.264;43.898;2023-05-01T12:27:08;100024.84;;;11.76;77.42
70323;BME280;57735;56.264;43.898;2023-05-01T12:29:40;100019.81;;;11.73;77.92
70323;BME280;57735;56.264;43.898;2023-05-01T12:32:17;100027.84;;;11.73;78.12
70323;BME280;57735;56.264;43.898;2023-05-01T12:34:48;100010.31;;;11.62;75.80
70323;BME280;57735;56.264;43.898;2023-05-01T12:37:21;100005.97;;;11.61;76.04
70323;BME280;57735;56.264;43.898;2023-05-01T12:39:52;100008.47;;;11.71;76.66
70323;BME280;57735;56.264;43.898;2023-05-01T12:42:23;100009.47;;;11.78;76.34
70323;BME280;57735;56.264;43.898;2023-05-01T12:44:59;100011.16;;;11.71;76.41
70323;BME280;57735;56.264;43.898;2023-05-01T12:47:36;100012.97;;;11.70;76.86
70323;BME280;57735;56.264;43.898;2023-05-01T12:50:08;99999.63;;;11.70;76.88
70323;BME280;57735;56.264;43.898;2023-05-01T12:52:39;99986.63;;;11.67;76.36
70323;BME280;57735;56.264;43.898;2023-05-01T12:55:10;99988.78;;;11.72;76.66
70323;BME280;57735;56.264;43.898;2023-05-01T12:57:52;99999.09;;;11.75;76.65
70323;BME280;57735;56.264;43.898;2023-05-01T13:00:23;100003.31;;;11.77;76.70
70323;BME280;57735;56.264;43.898;2023-05-01T13:02:54;100005.97;;;11.69;75.56
70323;BME280;57735;56.264;43.898;2023-05-01T13:05:31;100001.63;;;11.60;75.39
70323;BME280;57735;56.264;43.898;2023-05-01T13:08:02;100003.63;;;11.58;75.95
70323;BME280;57735;56.264;43.898;2023-05-01T13:10:36;100010.47;;;11.61;75.99
70323;BME280;57735;56.264;43.898;2023-05-01T13:13:07;100017.16;;;11.57;75.37
70323;BME280;57735;56.264;43.898;2023-05-01T13:15:38;100010.50;;;11.52;76.16
70323;BME280;57735;56.264;43.898;2023-05-01T13:18:09;100015.16;;;11.42;76.37
70323;BME280;57735;56.264;43.898;2023-05-01T13:20:40;100030.69;;;11.31;76.67
70323;BME280;57735;56.264;43.898;2023-05-01T13:23:12;100017.84;;;11.26;77.14
70323;BME280;57735;56.264;43.898;2023-05-01T13:25:45;100015.19;;;11.26;77.23
70323;BME280;57735;56.264;43.898;2023-05-01T13:28:17;100028.84;;;11.23;77.09
70323;BME280;57735;56.264;43.898;2023-05-01T13:30:49;100031.19;;;11.26;77.35
70323;BME280;57735;56.264;43.898;2023-05-01T13:33:20;100034.84;;;11.25;76.40
70323;BME280;57735;56.264;43.898;2023-05-01T13:35:50;100032.69;;;11.29;76.59
70323;BME280;57735;56.264;43.898;2023-05-01T13:38:21;100040.03;;;11.27;76.29
70323;BME280;57735;56.264;43.898;2023-05-01T13:40:54;100041.84;;;11.26;76.45
70323;BME280;57735;56.264;43.898;2023-05-01T13:43:25;100041.53;;;11.29;76.92
70323;BME280;57735;56.264;43.898;2023-05-01T13:45:59;100047.88;;;11.36;76.83
70323;BME280;57735;56.264;43.898;2023-05-01T13:48:29;100062.53;;;11.40;76.30
70323;BME280;57735;56.264;43.898;2023-05-01T13:51:01;100054.88;;;11.37;76.03
70323;BME280;57735;56.264;43.898;2023-05-01T13:53:31;100057.22;;;11.32;76.63
70323;BME280;57735;56.264;43.898;2023-05-01T13:56:03;100059.53;;;11.27;76.33
70323;BME280;57735;56.264;43.898;2023-05-01T13:58:37;100062.56;;;11.32;77.03